Time;durP1;ratioP1;P1;durP2;ratioP2;P2;SDS_P1;SDS_P2;PMS_P1;PMS_P2;Temp;Humidity;BMP_temperature;BMP_pressure;BME280_temperature;BME280_humidity;BME280_pressure;Samples;Min_cycle;Max_cycle;Signal;HPM_P1;HPM_P2
2022/07/30 00:02:25;;;;;;;15.13;11.47;;;18.50;20.40;;;;;;5049675;28;20388;-80
2022/07/30 00:04:51;;;;;;;17.47;11.67;;;18.50;21.20;;;;;;5036164;28;20396;-80
2022/07/30 00:07:37;;;;;;;15.87;12.40;;;18.50;25.10;;;;;;5039180;28;20417;-80
2022/07/30 00:10:04;;;;;;;21.20;11.03;;;18.50;25.00;;;;;;5036832;28;20186;-78
2022/07/30 00:12:49;;;;;;;16.13;12.43;;;18.50;21.70;;;;;;5055409;28;20509;-78
2022/07/30 00:15:19;;;;;;;12.23;10.93;;;18.50;20.20;;;;;;5034899;28;20385;-78
2022/07/30 00:17:45;;;;;;;16.37;11.23;;;18.50;20.30;;;;;;5050820;28;20436;-78
2022/07/30 00:20:10;;;;;;;15.33;10.47;;;18.40;20.70;;;;;;5052734;28;20979;-78
2022/07/30 00:22:36;;;;;;;17.10;10.90;;;18.40;19.20;;;;;;5055874;28;20212;-78
2022/07/30 00:25:13;;;;;;;23.97;11.60;;;18.30;20.40;;;;;;5055885;28;20185;-80
2022/07/30 00:27:44;;;;;;;13.47;10.40;;;18.40;22.20;;;;;;5050970;28;20542;-80
2022/07/30 00:30:37;;;;;;;11.20;10.03;;;18.30;20.40;;;;;;5042957;28;20413;-80
2022/07/30 00:33:24;;;;;;;14.97;10.70;;;18.20;21.80;;;;;;5035933;28;20448;-80
2022/07/30 00:36:12;;;;;;;11.70;10.50;;;18.00;28.30;;;;;;5050398;28;20466;-80
2022/07/30 00:38:55;;;;;;;13.60;10.70;;;18.00;26.20;;;;;;5049022;28;20428;-80
2022/07/30 00:41:56;;;;;;;15.70;10.27;;;18.00;28.80;;;;;;5059839;28;20395;-80
2022/07/30 00:44:42;;;;;;;18.97;10.83;;;18.00;27.20;;;;;;5053859;28;20431;-81
2022/07/30 00:47:31;;;;;;;11.63;10.43;;;17.90;25.80;;;;;;5054745;28;20443;-81
2022/07/30 00:50:08;;;;;;;13.40;9.50;;;17.90;22.90;;;;;;5040717;28;20449;-80
2022/07/30 00:52:37;;;;;;;15.17;9.80;;;17.80;21.60;;;;;;5038727;28;20477;-80
2022/07/30 00:55:09;;;;;;;12.73;10.27;;;17.80;22.20;;;;;;5038610;28;20415;-80
2022/07/30 00:58:00;;;;;;;15.93;10.83;;;17.70;21.60;;;;;;5054786;28;20427;-80
2022/07/30 01:00:31;;;;;;;14.43;10.63;;;17.70;24.40;;;;;;5054417;28;20420;-80
2022/07/30 01:03:18;;;;;;;12.10;9.73;;;17.60;23.60;;;;;;5042370;28;20466;-80
2022/07/30 01:05:45;;;;;;;12.40;9.77;;;17.60;27.30;;;;;;5035089;28;20367;-80
2022/07/30 01:08:13;;;;;;;12.83;10.20;;;17.60;25.20;;;;;;5050671;28;20894;-79
2022/07/30 01:10:43;;;;;;;14.50;11.07;;;17.40;26.70;;;;;;5048406;28;20402;-79
2022/07/30 01:13:25;;;;;;;13.83;10.90;;;17.40;31.50;;;;;;5054305;28;20505;-78
2022/07/30 01:16:13;;;;;;;14.90;10.40;;;17.40;38.70;;;;;;5045465;28;20432;-79
2022/07/30 01:21:48;;;;;;;14.10;10.93;;;17.30;43.20;;;;;;5044314;28;20438;-78
2022/07/30 01:24:26;;;;;;;12.67;10.83;;;17.20;48.30;;;;;;5053415;28;20367;-79
2022/07/30 01:27:01;;;;;;;18.60;10.60;;;17.30;48.40;;;;;;5046032;28;20829;-77
2022/07/30 01:29:39;;;;;;;13.00;9.90;;;17.20;48.30;;;;;;5047005;28;20456;-78
2022/07/30 01:32:09;;;;;;;11.40;10.07;;;17.10;48.30;;;;;;5040575;28;20787;-78
2022/07/30 01:34:44;;;;;;;14.27;11.10;;;17.10;48.40;;;;;;5052347;28;20414;-78
2022/07/30 01:37:37;;;;;;;15.80;11.30;;;17.10;48.30;;;;;;5048754;28;20997;-78
2022/07/30 01:40:13;;;;;;;12.07;10.60;;;17.00;48.20;;;;;;5043329;28;20413;-81
2022/07/30 01:42:53;;;;;;;16.27;11.37;;;17.00;48.30;;;;;;5049139;28;20964;-81
2022/07/30 01:46:00;;;;;;;18.63;10.73;;;16.90;48.10;;;;;;5039630;28;20482;-81
2022/07/30 01:48:34;;;;;;;18.97;11.50;;;16.90;48.10;;;;;;5053078;28;20551;-81
2022/07/30 01:51:10;;;;;;;12.30;10.43;;;16.90;48.10;;;;;;5050711;28;20921;-80
2022/07/30 01:53:40;;;;;;;22.83;11.87;;;16.90;48.10;;;;;;5047221;28;20430;-79
2022/07/30 01:56:08;;;;;;;15.37;11.50;;;16.80;48.00;;;;;;5041602;28;20479;-78
2022/07/30 01:58:47;;;;;;;16.53;11.50;;;16.70;47.90;;;;;;5051951;28;20438;-78
2022/07/30 02:01:31;;;;;;;14.20;10.47;;;16.70;47.90;;;;;;5050890;28;20406;-78
2022/07/30 02:04:00;;;;;;;11.47;10.30;;;16.70;44.00;;;;;;5035159;28;20432;-78
2022/07/30 02:06:37;;;;;;;15.67;11.40;;;16.70;44.60;;;;;;5033749;28;20406;-78
2022/07/30 02:09:05;;;;;;;18.33;11.87;;;16.50;47.70;;;;;;5044162;28;20398;-80
2022/07/30 02:14:33;;;;;;;13.60;10.70;;;16.50;47.70;;;;;;5046064;28;20447;-80
2022/07/30 02:17:01;;;;;;;13.60;10.43;;;16.40;47.60;;;;;;5036758;28;20904;-80
2022/07/30 02:19:37;;;;;;;15.83;11.33;;;16.40;47.80;;;;;;5052758;28;20853;-80
2022/07/30 02:22:48;;;;;;;13.03;10.90;;;16.40;47.60;;;;;;5051621;28;20429;-80
2022/07/30 02:25:41;;;;;;;16.30;10.37;;;16.40;47.60;;;;;;5044115;28;20405;-79
2022/07/30 02:28:20;;;;;;;14.33;9.90;;;16.30;47.50;;;;;;5046348;28;20424;-78
2022/07/30 02:31:02;;;;;;;14.93;10.50;;;16.30;47.50;;;;;;5038827;28;20495;-78
2022/07/30 02:33:36;;;;;;;11.10;9.90;;;16.20;47.40;;;;;;5034104;28;20410;-78
2022/07/30 02:36:04;;;;;;;11.87;9.90;;;16.20;47.60;;;;;;5047237;28;20416;-78
2022/07/30 02:38:31;;;;;;;13.50;10.20;;;16.20;47.40;;;;;;5041049;28;20442;-78
2022/07/30 02:41:03;;;;;;;13.90;10.27;;;16.20;42.40;;;;;;5033964;28;20716;-80
2022/07/30 02:43:39;;;;;;;21.63;10.83;;;16.10;47.40;;;;;;5046933;28;20778;-81
2022/07/30 02:46:26;;;;;;;12.47;10.40;;;16.10;47.40;;;;;;5040244;28;20962;-80
2022/07/30 02:49:02;;;;;;;15.43;10.33;;;16.10;51.50;;;;;;5036384;28;20430;-80
2022/07/30 02:51:33;;;;;;;15.33;10.40;;;16.00;47.30;;;;;;5044216;28;20472;-81
2022/07/30 02:54:02;;;;;;;15.40;10.43;;;16.10;47.40;;;;;;5052687;28;20496;-80
2022/07/30 02:56:29;;;;;;;15.27;10.50;;;16.00;47.30;;;;;;5053369;28;20521;-78
2022/07/30 02:59:03;;;;;;;14.63;10.53;;;16.00;45.10;;;;;;5039731;28;20421;-78
2022/07/30 03:01:31;;;;;;;14.40;10.63;;;16.00;38.00;;;;;;5047711;28;20421;-78
2022/07/30 03:04:03;;;;;;;12.93;10.60;;;15.90;34.30;;;;;;5044207;28;20419;-78
2022/07/30 03:06:44;;;;;;;12.90;10.60;;;15.80;47.00;;;;;;5037565;28;20429;-78
2022/07/30 03:09:16;;;;;;;14.60;11.27;;;15.80;47.30;;;;;;5047120;28;20397;-78
2022/07/30 03:12:02;;;;;;;14.27;10.30;;;15.90;47.20;;;;;;5052821;28;20432;-80
2022/07/30 03:14:28;;;;;;;14.37;10.37;;;15.80;47.10;;;;;;5039253;28;20369;-80
2022/07/30 03:17:09;;;;;;;12.77;10.50;;;15.80;47.10;;;;;;5039125;28;20396;-80
2022/07/30 03:19:38;;;;;;;12.80;10.60;;;15.80;47.10;;;;;;5041808;28;20731;-81
2022/07/30 03:22:16;;;;;;;18.23;11.93;;;15.90;47.20;;;;;;5056469;28;20789;-81
2022/07/30 03:24:57;;;;;;;14.13;11.10;;;15.90;44.00;;;;;;5051273;28;20877;-80
2022/07/30 03:27:32;;;;;;;15.83;10.80;;;15.90;47.30;;;;;;5047953;28;20514;-80
2022/07/30 03:30:42;;;;;;;14.40;10.83;;;15.90;47.20;;;;;;5055709;28;20441;-81
2022/07/30 03:36:30;;;;;;;15.00;10.00;;;15.80;47.10;;;;;;5044239;28;20384;-80
2022/07/30 03:39:04;;;;;;;16.13;11.40;;;15.90;47.20;;;;;;5044309;28;20427;-81
2022/07/30 03:41:32;;;;;;;16.90;10.97;;;15.80;47.30;;;;;;5047858;28;20198;-81
2022/07/30 03:44:01;;;;;;;15.80;10.90;;;15.80;47.10;;;;;;5044144;28;20868;-81
2022/07/30 03:46:33;;;;;;;18.30;10.90;;;15.80;47.10;;;;;;5055811;28;20393;-81
2022/07/30 03:48:59;;;;;;;15.70;10.57;;;15.80;47.30;;;;;;5042790;28;20459;-81
2022/07/30 03:51:26;;;;;;;14.10;10.60;;;15.80;47.10;;;;;;5053342;28;20417;-81
2022/07/30 03:54:31;;;;;;;16.10;11.03;;;15.80;47.00;;;;;;5055821;28;20438;-81
2022/07/30 03:57:03;;;;;;;18.00;11.00;;;15.80;47.10;;;;;;5039715;28;20502;-81
2022/07/30 03:59:44;;;;;;;19.13;11.97;;;15.70;47.10;;;;;;5055438;28;20505;-81
2022/07/30 04:02:25;;;;;;;16.80;10.67;;;15.70;51.10;;;;;;5054867;28;20428;-80
2022/07/30 04:05:07;;;;;;;18.17;12.13;;;15.70;47.00;;;;;;5045255;28;20435;-81
2022/07/30 04:07:37;;;;;;;17.03;12.80;;;15.70;47.00;;;;;;5042674;28;20420;-80
2022/07/30 04:10:08;;;;;;;17.10;12.47;;;15.70;43.80;;;;;;5042386;28;20419;-79
2022/07/30 04:12:49;;;;;;;16.90;12.50;;;15.60;47.00;;;;;;5047219;28;20457;-78
2022/07/30 04:15:41;;;;;;;23.93;12.90;;;15.60;46.90;;;;;;5039498;28;20943;-78
2022/07/30 04:18:29;;;;;;;12.80;11.40;;;15.60;46.90;;;;;;5048723;28;20415;-78
2022/07/30 04:21:04;;;;;;;21.70;12.70;;;15.60;46.90;;;;;;5049335;28;20418;-78
2022/07/30 04:23:39;;;;;;;19.30;11.50;;;15.60;46.90;;;;;;5051560;28;20400;-78
2022/07/30 04:26:25;;;;;;;15.20;11.50;;;15.70;47.20;;;;;;5047666;28;20972;-80
2022/07/30 04:28:55;;;;;;;19.30;12.03;;;15.60;46.90;;;;;;5052182;28;20418;-80
2022/07/30 04:31:34;;;;;;;12.50;11.00;;;15.60;47.00;;;;;;5054658;28;20433;-81
2022/07/30 04:34:02;;;;;;;17.20;13.00;;;15.60;46.90;;;;;;5054550;28;20420;-81
2022/07/30 04:36:43;;;;;;;19.67;12.77;;;15.70;47.00;;;;;;5051896;28;20408;-81
2022/07/30 04:40:00;;;;;;;17.97;11.60;;;15.60;47.00;;;;;;5050800;28;20564;-81
2022/07/30 04:42:31;;;;;;;15.07;11.73;;;15.60;46.90;;;;;;5042445;28;20461;-78
2022/07/30 04:45:13;;;;;;;13.97;10.97;;;15.70;47.00;;;;;;5052731;28;20418;-78
2022/07/30 04:47:43;;;;;;;14.23;11.67;;;15.60;46.90;;;;;;5054993;28;20389;-78
2022/07/30 04:50:32;;;;;;;13.80;11.27;;;15.70;47.00;;;;;;5053780;28;20934;-78
2022/07/30 04:52:59;;;;;;;14.27;10.80;;;15.70;47.00;;;;;;5042451;28;20471;-78
2022/07/30 04:55:33;;;;;;;15.30;11.27;;;15.80;47.30;;;;;;5048191;28;20487;-79
2022/07/30 04:58:00;;;;;;;15.27;11.70;;;15.70;47.00;;;;;;5053077;28;20404;-78
2022/07/30 05:00:32;;;;;;;19.50;12.27;;;15.80;47.00;;;;;;5040155;28;20481;-78
2022/07/30 05:03:15;;;;;;;15.07;11.90;;;15.80;47.30;;;;;;5034366;28;20388;-78
2022/07/30 05:05:56;;;;;;;19.00;12.57;;;15.80;47.30;;;;;;5054619;28;21015;-78
2022/07/30 05:08:25;;;;;;;17.87;13.20;;;15.80;47.10;;;;;;5048913;28;20422;-78
2022/07/30 05:11:01;;;;;;;20.03;11.73;;;15.90;47.10;;;;;;5045677;28;20418;-80
2022/07/30 05:13:44;;;;;;;17.07;12.73;;;16.00;47.30;;;;;;5054404;28;20449;-81
2022/07/30 05:16:14;;;;;;;15.47;12.47;;;16.00;47.30;;;;;;5039428;28;20409;-81
2022/07/30 05:22:02;;;;;;;20.30;12.20;;;16.10;47.30;;;;;;5054845;28;20495;-79
2022/07/30 05:24:31;;;;;;;15.00;12.40;;;16.20;47.40;;;;;;5043436;28;20926;-80
2022/07/30 05:27:01;;;;;;;14.20;11.33;;;16.30;47.50;;;;;;5045002;28;20426;-81
2022/07/30 05:30:07;;;;;;;13.63;11.30;;;16.30;47.50;;;;;;5052670;28;20799;-80
2022/07/30 05:32:37;;;;;;;15.83;11.10;;;16.40;47.80;;;;;;5041222;28;20445;-81
2022/07/30 05:35:13;;;;;;;14.73;11.13;;;16.50;47.70;;;;;;5035964;28;20442;-80
2022/07/30 05:37:39;;;;;;;13.83;11.27;;;16.60;47.80;;;;;;5044986;28;20426;-81
2022/07/30 05:40:08;;;;;;;15.47;12.30;;;16.60;47.90;;;;;;5034588;28;20372;-81
2022/07/30 05:42:49;;;;;;;15.10;12.43;;;16.70;47.90;;;;;;5048251;28;20772;-82
2022/07/30 05:45:19;;;;;;;15.13;11.67;;;16.80;48.00;;;;;;5052757;28;20417;-82
2022/07/30 05:51:07;;;;;;;16.67;12.20;;;17.00;48.20;;;;;;5043251;28;20497;-82
2022/07/30 05:53:49;;;;;;;16.60;13.93;;;17.10;48.20;;;;;;5038346;28;20479;-82
2022/07/30 05:56:31;;;;;;;16.50;12.60;;;17.20;48.30;;;;;;5035983;28;20190;-82
2022/07/30 05:59:19;;;;;;;21.30;15.63;;;17.30;48.40;;;;;;5036772;28;20437;-83
2022/07/30 06:02:02;;;;;;;20.10;14.97;;;17.50;48.60;;;;;;5034061;28;20359;-82
2022/07/30 06:04:31;;;;;;;20.40;14.73;;;17.70;48.80;;;;;;5061934;28;20412;-82
2022/07/30 06:06:57;;;;;;;16.20;14.30;;;17.80;48.80;;;;;;5040446;28;20441;-82
2022/07/30 06:12:49;;;;;;;19.40;15.07;;;18.10;49.10;;;;;;5047854;28;20624;-82
2022/07/30 06:15:19;;;;;;;19.70;15.60;;;18.20;49.30;;;;;;5046103;28;20417;-82
2022/07/30 06:17:49;;;;;;;25.20;16.73;;;18.30;49.50;;;;;;5045008;28;20419;-82
2022/07/30 06:23:55;;;;;;;20.77;15.60;;;18.60;35.90;;;;;;5043458;28;20378;-82
2022/07/30 06:26:27;;;;;;;19.43;15.33;;;18.70;25.70;;;;;;5052151;28;21003;-81
2022/07/30 06:28:55;;;;;;;18.40;15.27;;;18.80;21.00;;;;;;5039296;28;20534;-82
2022/07/30 06:31:31;;;;;;;22.53;14.00;;;18.90;17.30;;;;;;5064006;28;20417;-81
2022/07/30 06:34:01;;;;;;;17.30;13.47;;;19.00;1.00;;;;;;5048884;28;20396;-81
2022/07/30 06:36:43;;;;;;;15.83;12.10;;;19.10;1.00;;;;;;5040817;28;20436;-82
2022/07/30 06:39:25;;;;;;;13.73;11.87;;;19.30;1.00;;;;;;5041276;28;20461;-79
2022/07/30 06:42:01;;;;;;;17.53;11.90;;;19.40;1.00;;;;;;5042089;28;20977;-82
2022/07/30 06:44:27;;;;;;;18.43;12.30;;;19.60;1.00;;;;;;5033690;28;20436;-82
2022/07/30 06:47:01;;;;;;;16.47;10.40;;;19.70;1.00;;;;;;5041829;28;20445;-82
2022/07/30 06:49:55;;;;;;;13.63;11.10;;;19.80;1.00;;;;;;5051468;28;20170;-82
2022/07/30 06:52:32;;;;;;;15.47;10.80;;;20.00;1.00;;;;;;5033219;28;20450;-82
2022/07/30 06:55:01;;;;;;;12.73;9.63;;;20.20;1.00;;;;;;5040089;28;20925;-82
2022/07/30 06:57:27;;;;;;;20.37;9.27;;;20.30;1.00;;;;;;5065082;28;20412;-80
2022/07/30 07:00:19;;;;;;;14.13;7.90;;;20.30;1.00;;;;;;5062536;28;21146;-80
2022/07/30 07:03:37;;;;;;;16.30;8.57;;;20.50;1.00;;;;;;5053632;28;20414;-80
2022/07/30 07:06:48;;;;;;;10.27;7.43;;;20.60;1.00;;;;;;5043441;28;20483;-79
2022/07/30 07:09:14;;;;;;;12.93;7.90;;;21.00;1.00;;;;;;5052889;28;20496;-79
2022/07/30 07:11:43;;;;;;;12.00;6.73;;;21.30;1.00;;;;;;5055404;28;20534;-82
2022/07/30 07:14:13;;;;;;;19.43;6.53;;;21.50;1.00;;;;;;5054026;28;20168;-82
2022/07/30 07:16:43;;;;;;;11.00;7.80;;;21.50;1.00;;;;;;5055651;28;20481;-81
2022/07/30 07:19:25;;;;;;;18.37;6.43;;;21.60;1.00;;;;;;5048159;28;20391;-82
2022/07/30 07:22:01;;;;;;;8.33;7.20;;;21.90;1.00;;;;;;5047287;28;20399;-82
2022/07/30 07:24:43;;;;;;;15.50;6.60;;;22.00;1.00;;;;;;5036738;28;20494;-82
2022/07/30 07:27:14;;;;;;;17.17;6.50;;;22.10;1.00;;;;;;5056242;28;20966;-81
2022/07/30 07:30:01;;;;;;;10.87;7.10;;;22.30;1.00;;;;;;5056693;28;20735;-80
2022/07/30 07:32:32;;;;;;;12.20;6.13;;;22.60;1.00;;;;;;5050521;28;20449;-81
2022/07/30 07:35:13;;;;;;;8.30;6.83;;;22.70;1.00;;;;;;5041326;28;20425;-81
2022/07/30 07:37:55;;;;;;;13.97;6.20;;;22.90;1.00;;;;;;5046088;28;20778;-81
2022/07/30 07:41:01;;;;;;;13.07;7.80;;;23.10;1.00;;;;;;5067203;28;20414;-82
2022/07/30 07:43:26;;;;;;;10.03;6.20;;;23.20;1.00;;;;;;5061286;28;20488;-82
2022/07/30 07:46:42;;;;;;;12.20;6.40;;;23.40;1.00;;;;;;5035460;28;20557;-82
2022/07/30 07:49:43;;;;;;;9.60;6.47;;;23.50;1.00;;;;;;5054315;28;20169;-82
2022/07/30 07:52:55;;;;;;;10.27;6.80;;;23.30;1.00;;;;;;5053157;28;20945;-80
2022/07/30 07:55:55;;;;;;;12.90;6.30;;;23.00;1.00;;;;;;5052744;28;20402;-80
2022/07/30 07:58:25;;;;;;;8.30;6.17;;;23.00;1.00;;;;;;5049610;28;20875;-80
2022/07/30 08:01:01;;;;;;;14.77;6.10;;;22.90;1.00;;;;;;5045440;28;20469;-81
2022/07/30 08:03:31;;;;;;;12.10;6.10;;;23.10;1.00;;;;;;5049132;28;20418;-80
2022/07/30 08:06:01;;;;;;;11.50;5.37;;;23.20;1.00;;;;;;5037781;28;20431;-81
2022/07/30 08:11:49;;;;;;;12.97;6.10;;;23.10;1.00;;;;;;5044285;28;20819;-80
2022/07/30 08:14:25;;;;;;;7.43;5.60;;;23.10;1.00;;;;;;5046830;28;20431;-84
2022/07/30 08:16:55;;;;;;;14.23;6.70;;;23.20;1.00;;;;;;5055082;28;20572;-84
2022/07/30 08:22:55;;;;;;;11.87;6.73;;;23.30;1.00;;;;;;5055389;28;20414;-84
2022/07/30 08:25:57;;;;;;;11.63;8.30;;;23.30;1.00;;;;;;5043338;28;20418;-84
2022/07/30 08:31:55;;;;;;;10.77;6.03;;;23.50;1.00;;;;;;5051576;28;20500;-84
2022/07/30 08:41:04;;;;;;;10.50;5.67;;;24.40;1.00;;;;;;5055965;28;20385;-87
2022/07/30 08:43:34;;;;;;;7.93;5.93;;;24.60;1.00;;;;;;5044433;28;20442;-80
2022/07/30 08:46:21;;;;;;;11.10;7.00;;;24.90;1.00;;;;;;5037533;28;20183;-80
2022/07/30 08:48:55;;;;;;;12.33;6.50;;;25.10;1.00;;;;;;5047998;28;20430;-81
2022/07/30 08:51:25;;;;;;;13.00;6.97;;;25.10;1.00;;;;;;5045825;28;20425;-80
2022/07/30 08:54:03;;;;;;;12.60;6.77;;;25.10;1.00;;;;;;5041860;28;20417;-80
2022/07/30 08:57:01;;;;;;;13.83;6.27;;;25.20;1.00;;;;;;5053568;28;20978;-80
2022/07/30 08:59:44;;;;;;;11.67;6.40;;;25.40;1.00;;;;;;5044919;28;20448;-80
2022/07/30 09:02:09;;;;;;;11.70;5.20;;;25.50;1.00;;;;;;5041467;28;20429;-78
2022/07/30 09:04:35;;;;;;;6.43;5.33;;;25.70;1.00;;;;;;5053229;28;20506;-78
2022/07/30 09:07:01;;;;;;;11.57;5.77;;;25.80;1.00;;;;;;5054767;28;20419;-82
2022/07/30 09:09:31;;;;;;;7.90;6.03;;;25.70;1.00;;;;;;5053971;28;20169;-81
2022/07/30 09:11:58;;;;;;;8.23;6.13;;;25.80;1.00;;;;;;5042994;28;20199;-79
2022/07/30 09:14:25;;;;;;;9.23;5.93;;;26.00;1.00;;;;;;5055233;28;20434;-77
2022/07/30 09:16:57;;;;;;;10.13;5.10;;;26.00;1.00;;;;;;5046455;28;20420;-77
2022/07/30 09:19:25;;;;;;;18.43;5.40;;;26.00;1.00;;;;;;5050570;28;20417;-77
2022/07/30 09:22:01;;;;;;;10.73;4.20;;;26.10;1.00;;;;;;5054958;28;20409;-77
2022/07/30 09:24:42;;;;;;;18.67;5.10;;;26.00;1.00;;;;;;5041539;28;20437;-78
2022/07/30 09:27:08;;;;;;;8.63;4.93;;;26.00;1.00;;;;;;5054558;28;20950;-79
2022/07/30 09:29:35;;;;;;;9.30;5.03;;;26.00;1.00;;;;;;5054426;28;20459;-79
2022/07/30 09:32:47;;;;;;;8.50;3.67;;;26.00;1.00;;;;;;5041506;28;20869;-79
2022/07/30 09:35:14;;;;;;;8.50;5.10;;;26.10;1.00;;;;;;5034670;28;20814;-80
2022/07/30 09:37:39;;;;;;;6.40;4.93;;;26.20;1.00;;;;;;5038562;28;20436;-79
2022/07/30 09:40:17;;;;;;;10.57;5.70;;;26.10;1.00;;;;;;5041986;28;20483;-78
2022/07/30 09:42:44;;;;;;;14.93;6.97;;;26.40;1.00;;;;;;5036281;28;20194;-78
2022/07/30 09:45:14;;;;;;;12.00;4.73;;;26.70;1.00;;;;;;5045482;28;20465;-81
2022/07/30 09:47:49;;;;;;;11.40;5.57;;;26.70;1.00;;;;;;5040107;28;20436;-82
2022/07/30 09:50:26;;;;;;;7.27;5.40;;;26.60;1.00;;;;;;5042734;28;20425;-84
2022/07/30 09:53:08;;;;;;;4.93;4.00;;;26.70;1.00;;;;;;5034156;28;21029;-83
2022/07/30 09:56:22;;;;;;;6.83;5.00;;;26.90;1.00;;;;;;5043823;28;20472;-84
2022/07/30 09:59:01;;;;;;;7.27;4.10;;;26.60;1.00;;;;;;5050897;28;20408;-84
2022/07/30 10:01:27;;;;;;;7.17;3.63;;;26.90;1.00;;;;;;5053149;28;20429;-84
2022/07/30 10:04:22;;;;;;;6.00;3.80;;;27.10;1.00;;;;;;5054195;28;20405;-84
2022/07/30 10:11:01;;;;;;;6.57;4.33;;;27.50;1.00;;;;;;5034012;28;20909;-84
2022/07/30 10:13:36;;;;;;;5.83;4.03;;;27.70;1.00;;;;;;5051420;28;20512;-78
2022/07/30 10:16:02;;;;;;;5.60;4.70;;;27.70;1.00;;;;;;5052502;28;20934;-77
2022/07/30 10:18:34;;;;;;;7.60;4.57;;;27.60;1.00;;;;;;5053582;28;20460;-78
2022/07/30 10:21:15;;;;;;;5.27;3.80;;;27.80;1.00;;;;;;5044687;28;20408;-77
2022/07/30 10:23:41;;;;;;;9.67;4.10;;;27.90;1.00;;;;;;5053455;28;20422;-78
2022/07/30 10:26:14;;;;;;;4.80;4.30;;;28.00;1.00;;;;;;5051588;28;20433;-77
2022/07/30 10:28:44;;;;;;;6.23;3.77;;;27.90;1.00;;;;;;5047635;28;20178;-78
2022/07/30 10:31:22;;;;;;;10.03;4.97;;;27.70;1.00;;;;;;5033717;28;20392;-78
2022/07/30 10:34:01;;;;;;;7.27;4.20;;;27.80;1.00;;;;;;5046076;28;20523;-77
2022/07/30 10:36:42;;;;;;;5.30;3.87;;;28.00;1.00;;;;;;5034008;28;20413;-77
2022/07/30 10:39:12;;;;;;;8.10;4.40;;;28.00;1.00;;;;;;5053353;28;20464;-77
2022/07/30 10:42:19;;;;;;;6.70;4.37;;;28.00;1.00;;;;;;5039711;28;20435;-78
2022/07/30 10:44:52;;;;;;;5.47;3.83;;;28.20;1.00;;;;;;5033482;28;21010;-78
2022/07/30 10:47:19;;;;;;;3.53;3.20;;;28.40;1.00;;;;;;5045042;28;20416;-77
2022/07/30 10:50:11;;;;;;;3.47;3.17;;;28.70;1.00;;;;;;5048336;28;20420;-77
2022/07/30 10:53:01;;;;;;;4.50;3.60;;;28.80;1.00;;;;;;5037773;28;20457;-77
2022/07/30 10:55:33;;;;;;;4.10;3.80;;;28.70;1.00;;;;;;5038825;28;20413;-77
2022/07/30 10:58:03;;;;;;;6.60;3.90;;;28.50;1.00;;;;;;5042240;28;20828;-77
2022/07/30 11:00:31;;;;;;;8.20;3.30;;;28.30;1.00;;;;;;5052794;28;20441;-78
2022/07/30 11:03:25;;;;;;;8.00;4.10;;;28.30;1.00;;;;;;5050432;28;20454;-77
2022/07/30 11:06:21;;;;;;;8.37;4.07;;;28.20;1.00;;;;;;5033142;28;20805;-77
2022/07/30 11:08:49;;;;;;;7.20;3.70;;;28.40;1.00;;;;;;4975330;28;20435;-77
2022/07/30 11:11:29;;;;;;;8.20;3.80;;;28.60;1.00;;;;;;5004363;28;20410;-78
2022/07/30 11:14:19;;;;;;;4.27;3.87;;;28.60;1.00;;;;;;5000183;28;20539;-83
2022/07/30 11:17:01;;;;;;;7.97;3.67;;;28.60;1.00;;;;;;5006807;28;20407;-84
2022/07/30 11:19:27;;;;;;;7.03;3.50;;;28.70;1.00;;;;;;4991714;28;20408;-84
2022/07/30 11:22:49;;;;;;;9.47;2.77;;;28.60;1.00;;;;;;4998336;28;20418;-84
2022/07/30 11:25:26;;;;;;;4.27;3.30;;;28.50;1.00;;;;;;4994982;28;20417;-78
2022/07/30 11:27:52;;;;;;;3.63;3.00;;;28.60;1.00;;;;;;5011104;28;20528;-77
2022/07/30 11:30:28;;;;;;;4.60;2.93;;;28.80;1.00;;;;;;5011834;28;20425;-78
2022/07/30 11:33:15;;;;;;;6.47;2.90;;;28.90;1.00;;;;;;5010859;28;20456;-79
2022/07/30 11:36:15;;;;;;;4.23;2.90;;;29.10;1.00;;;;;;4997098;28;20442;-79
2022/07/30 11:39:13;;;;;;;6.13;2.40;;;29.30;1.00;;;;;;4972425;28;20541;-79
2022/07/30 11:42:28;;;;;;;2.80;2.40;;;29.40;1.00;;;;;;4995045;28;20424;-74
2022/07/30 11:45:21;;;;;;;4.00;2.53;;;29.40;1.00;;;;;;4935348;29;20434;-71
2022/07/30 11:47:50;;;;;;;2.60;2.40;;;29.20;1.00;;;;;;4943019;28;20910;-71
2022/07/30 11:50:22;;;;;;;3.33;2.80;;;29.10;1.00;;;;;;4955600;29;20928;-72
2022/07/30 11:52:54;;;;;;;5.30;2.70;;;29.10;1.00;;;;;;4955543;29;20457;-71
2022/07/30 11:55:29;;;;;;;2.90;2.57;;;29.10;1.00;;;;;;4960334;28;20836;-71
2022/07/30 11:57:56;;;;;;;4.03;2.10;;;29.00;1.00;;;;;;4956206;29;20481;-77
2022/07/30 12:00:36;;;;;;;5.23;2.20;;;29.00;1.00;;;;;;4942125;29;20468;-83
2022/07/30 12:06:25;;;;;;;2.90;2.30;;;29.30;1.00;;;;;;4944433;28;20456;-83
2022/07/30 12:09:01;;;;;;;5.93;2.40;;;29.30;1.00;;;;;;4955906;29;20428;-83
2022/07/30 12:12:07;;;;;;;5.63;2.30;;;29.10;1.00;;;;;;4955847;29;20397;-80
2022/07/30 12:14:37;;;;;;;7.60;2.80;;;29.50;1.00;;;;;;4979337;28;20474;-79
2022/07/30 12:17:07;;;;;;;4.03;2.80;;;29.50;1.00;;;;;;4994081;28;20498;-80
2022/07/30 12:19:44;;;;;;;6.70;2.50;;;29.30;1.00;;;;;;4992108;28;20448;-78
2022/07/30 12:22:13;;;;;;;6.40;2.50;;;29.20;1.00;;;;;;5047770;28;20449;-79
2022/07/30 12:24:50;;;;;;;3.67;2.30;;;29.20;1.00;;;;;;5055458;28;20879;-79
2022/07/30 12:27:19;;;;;;;2.47;2.20;;;29.30;1.00;;;;;;5055592;28;20429;-77
2022/07/30 12:30:03;;;;;;;5.70;2.67;;;29.40;1.00;;;;;;5052147;28;20516;-79
2022/07/30 12:32:55;;;;;;;4.57;2.87;;;29.40;1.00;;;;;;5055676;28;20439;-78
2022/07/30 12:35:56;;;;;;;3.40;2.47;;;29.40;1.00;;;;;;5051974;28;20540;-78
2022/07/30 12:38:23;;;;;;;3.53;2.40;;;29.60;1.00;;;;;;5039781;28;20468;-78
2022/07/30 12:40:57;;;;;;;4.30;2.50;;;29.80;1.00;;;;;;5045945;28;20531;-78
2022/07/30 12:43:48;;;;;;;3.40;2.40;;;30.10;1.00;;;;;;5055420;28;20455;-78
2022/07/30 12:46:25;;;;;;;3.27;2.63;;;30.40;1.00;;;;;;5055683;28;20453;-82
2022/07/30 12:49:14;;;;;;;2.80;2.60;;;31.00;1.00;;;;;;5053300;28;20422;-80
2022/07/30 12:52:25;;;;;;;5.30;2.30;;;31.30;1.00;;;;;;5050499;28;20422;-80
2022/07/30 12:55:07;;;;;;;6.77;1.87;;;31.40;1.00;;;;;;5047759;28;20909;-81
2022/07/30 13:04:19;;;;;;;4.70;2.40;;;31.60;1.00;;;;;;5048601;28;20445;-79
2022/07/30 13:07:19;;;;;;;4.60;2.40;;;31.40;1.00;;;;;;5054979;28;20414;-76
2022/07/30 13:09:44;;;;;;;4.40;2.50;;;31.30;1.00;;;;;;5035402;28;20446;-77
2022/07/30 13:12:12;;;;;;;3.70;2.13;;;31.00;1.00;;;;;;5035248;28;20471;-75
2022/07/30 13:14:44;;;;;;;4.20;2.17;;;31.00;1.00;;;;;;5045304;28;20202;-75
2022/07/30 13:17:13;;;;;;;2.80;2.50;;;31.10;1.00;;;;;;5055062;28;20475;-75
2022/07/30 13:19:39;;;;;;;4.90;2.30;;;31.30;1.00;;;;;;5062093;28;20540;-75
2022/07/30 13:22:05;;;;;;;2.00;1.90;;;31.60;1.00;;;;;;5052781;28;20772;-76
2022/07/30 13:24:43;;;;;;;4.97;2.20;;;31.80;1.00;;;;;;5054857;28;20168;-75
2022/07/30 13:27:09;;;;;;;5.10;2.43;;;31.90;1.00;;;;;;5054803;28;20414;-75
2022/07/30 13:29:35;;;;;;;3.77;2.60;;;32.20;1.00;;;;;;5054933;28;20457;-76
2022/07/30 13:32:01;;;;;;;4.20;2.07;;;32.30;1.00;;;;;;5055152;28;20254;-76
2022/07/30 13:34:27;;;;;;;4.90;2.23;;;32.20;1.00;;;;;;5054025;28;20182;-76
2022/07/30 13:37:01;;;;;;;5.07;1.97;;;32.00;1.00;;;;;;5052131;28;20430;-76
2022/07/30 13:39:27;;;;;;;4.20;2.00;;;32.00;1.00;;;;;;5048444;28;20204;-76
2022/07/30 13:41:52;;;;;;;4.77;2.37;;;31.80;1.00;;;;;;5056373;28;20795;-75
2022/07/30 13:44:19;;;;;;;2.80;2.30;;;32.00;1.00;;;;;;5054305;28;20615;-77
2022/07/30 13:47:13;;;;;;;2.87;2.20;;;32.30;1.00;;;;;;5052977;28;20202;-83
2022/07/30 13:49:49;;;;;;;2.10;2.00;;;32.50;1.00;;;;;;5052889;28;20426;-81
2022/07/30 13:52:44;;;;;;;3.43;2.20;;;32.50;1.00;;;;;;5052437;28;21037;-82
2022/07/30 13:55:15;;;;;;;2.47;2.27;;;32.30;1.00;;;;;;5043043;28;20430;-81
2022/07/30 13:57:56;;;;;;;3.40;2.37;;;31.60;1.00;;;;;;5043968;28;20410;-81
2022/07/30 14:00:23;;;;;;;3.63;2.23;;;31.30;1.00;;;;;;5053566;28;20414;-78
2022/07/30 14:03:31;;;;;;;2.67;2.17;;;31.40;1.00;;;;;;5042241;28;20411;-82
2022/07/30 14:06:10;;;;;;;3.23;2.03;;;31.70;1.00;;;;;;5047119;28;20435;-82
2022/07/30 14:09:02;;;;;;;2.10;1.90;;;31.80;1.00;;;;;;5033925;28;20427;-84
2022/07/30 14:15:08;;;;;;;5.33;2.53;;;32.10;1.00;;;;;;5051243;28;20460;-79
2022/07/30 14:18:02;;;;;;;3.93;2.20;;;32.00;1.00;;;;;;5052748;28;20441;-79
2022/07/30 14:20:31;;;;;;;2.40;2.20;;;32.10;1.00;;;;;;5053074;28;20830;-79
2022/07/30 14:23:18;;;;;;;3.03;2.60;;;32.00;1.00;;;;;;5053651;28;20417;-79
2022/07/30 14:25:49;;;;;;;7.23;2.33;;;32.00;1.00;;;;;;5052163;28;20422;-77
2022/07/30 14:28:15;;;;;;;5.30;2.10;;;31.80;1.00;;;;;;5052339;28;20413;-74
2022/07/30 14:30:41;;;;;;;4.97;2.27;;;31.60;1.00;;;;;;5047289;28;20502;-74
2022/07/30 14:33:07;;;;;;;3.53;2.10;;;31.80;1.00;;;;;;5053665;28;20550;-74